createdAt,value
2022-12-16T00:00:24.224Z,0.00
2022-12-16T00:01:24.159Z,0.00
2022-12-16T00:02:24.201Z,0.00
2022-12-16T00:03:24.196Z,0.00
2022-12-16T00:04:24.103Z,0.00
2022-12-16T00:05:24.086Z,0.00
2022-12-16T00:06:24.077Z,0.00
2022-12-16T00:07:24.055Z,0.00
2022-12-16T00:08:24.034Z,0.00
2022-12-16T00:09:24.023Z,0.00
2022-12-16T00:10:23.999Z,0.00
2022-12-16T00:11:23.985Z,0.00
2022-12-16T00:12:23.969Z,0.00
2022-12-16T00:13:23.952Z,0.00
2022-12-16T00:14:23.935Z,0.00
2022-12-16T00:15:23.928Z,0.00
2022-12-16T00:16:23.932Z,0.00
2022-12-16T00:17:23.891Z,0.00
2022-12-16T00:18:23.867Z,0.00
2022-12-16T00:19:23.851Z,0.00
2022-12-16T00:20:23.838Z,0.00
2022-12-16T00:21:23.816Z,0.00
2022-12-16T00:22:23.802Z,0.00
2022-12-16T00:23:23.777Z,0.00
2022-12-16T00:24:23.759Z,0.00
2022-12-16T00:25:23.747Z,0.00
2022-12-16T00:26:23.730Z,0.00
2022-12-16T00:27:23.720Z,0.00
2022-12-16T00:28:23.695Z,0.00
2022-12-16T00:29:23.676Z,0.00
2022-12-16T00:30:23.662Z,0.00
2022-12-16T00:31:23.694Z,0.00
2022-12-16T00:32:23.630Z,0.00
2022-12-16T00:33:23.702Z,0.00
2022-12-16T00:34:23.588Z,0.00
2022-12-16T00:35:23.578Z,0.00
2022-12-16T00:36:23.558Z,0.00
2022-12-16T00:37:23.543Z,0.00
2022-12-16T00:38:23.528Z,0.00
2022-12-16T00:39:23.508Z,0.00
2022-12-16T00:40:23.489Z,0.00
2022-12-16T00:41:23.471Z,0.00
2022-12-16T00:42:23.457Z,0.00
2022-12-16T00:43:23.444Z,0.00
2022-12-16T00:44:23.420Z,0.00
2022-12-16T00:45:23.447Z,0.00
2022-12-16T00:46:23.451Z,0.00
2022-12-16T00:47:23.372Z,0.00
2022-12-16T00:48:23.494Z,0.00
2022-12-16T00:49:23.343Z,0.00
2022-12-16T00:50:23.323Z,0.00
2022-12-16T00:51:23.310Z,0.00
2022-12-16T00:52:23.282Z,0.00
2022-12-16T00:53:23.275Z,0.00
2022-12-16T00:54:23.253Z,0.00
2022-12-16T00:55:23.234Z,0.00
2022-12-16T00:56:23.218Z,0.00
2022-12-16T00:57:23.201Z,0.00
2022-12-16T00:58:23.187Z,0.00
2022-12-16T00:59:23.170Z,0.00
2022-12-16T01:00:23.153Z,0.00
2022-12-16T01:01:23.215Z,0.00
2022-12-16T01:02:23.235Z,0.00
2022-12-16T01:03:23.253Z,0.00
2022-12-16T01:04:23.079Z,0.00
2022-12-16T01:05:23.070Z,0.00
2022-12-16T01:06:23.050Z,0.00
2022-12-16T01:07:23.033Z,0.00
2022-12-16T01:08:23.014Z,0.00
2022-12-16T01:09:22.998Z,0.00
2022-12-16T01:10:22.978Z,0.00
2022-12-16T01:11:22.963Z,0.00
2022-12-16T01:12:22.944Z,0.00
2022-12-16T01:13:22.926Z,0.00
2022-12-16T01:14:22.918Z,0.00
2022-12-16T01:15:22.895Z,0.00
2022-12-16T01:16:22.937Z,0.00
2022-12-16T01:17:22.859Z,0.00
2022-12-16T01:18:22.837Z,0.00
2022-12-16T01:19:22.824Z,0.00
2022-12-16T01:20:22.813Z,0.00
2022-12-16T01:21:22.780Z,0.00
2022-12-16T01:22:22.772Z,0.00
2022-12-16T01:23:22.761Z,0.00
2022-12-16T01:24:22.736Z,0.00
2022-12-16T01:25:22.725Z,0.00
2022-12-16T01:26:22.697Z,0.00
2022-12-16T01:27:22.684Z,0.00
2022-12-16T01:28:22.663Z,0.00
2022-12-16T01:29:22.651Z,0.00
2022-12-16T01:30:22.627Z,0.00
2022-12-16T01:31:22.644Z,0.00
2022-12-16T01:32:22.610Z,0.00
2022-12-16T01:33:22.583Z,0.00
2022-12-16T01:34:22.561Z,0.00
2022-12-16T01:35:52.199Z,0.00
2022-12-16T01:36:22.524Z,0.00
2022-12-16T01:37:22.509Z,0.00
2022-12-16T01:38:22.492Z,0.00
2022-12-16T01:39:22.473Z,0.00
2022-12-16T01:40:22.455Z,0.00
2022-12-16T01:41:22.450Z,0.00
2022-12-16T01:42:22.423Z,0.00
2022-12-16T01:43:22.405Z,0.00
2022-12-16T01:44:22.395Z,0.00
2022-12-16T01:45:22.369Z,0.00
2022-12-16T01:46:22.382Z,0.00
2022-12-16T01:47:22.344Z,0.00
2022-12-16T01:48:22.317Z,0.00
2022-12-16T01:49:22.301Z,0.00
2022-12-16T01:50:22.283Z,0.00
2022-12-16T01:51:22.257Z,0.00
2022-12-16T01:52:22.244Z,0.00
2022-12-16T01:53:22.222Z,0.00
2022-12-16T01:54:22.210Z,0.00
2022-12-16T01:55:22.190Z,0.00
2022-12-16T01:56:22.169Z,0.00
2022-12-16T01:57:22.157Z,0.00
2022-12-16T01:58:22.131Z,0.00
2022-12-16T01:59:22.120Z,0.00
2022-12-16T02:00:22.110Z,0.00
2022-12-16T02:01:22.214Z,0.00
2022-12-16T02:02:22.199Z,0.00
2022-12-16T02:03:22.097Z,0.00
2022-12-16T02:04:22.030Z,0.00
2022-12-16T02:05:22.013Z,0.00
2022-12-16T02:06:21.998Z,0.00
2022-12-16T02:07:21.979Z,0.00
2022-12-16T02:08:21.968Z,0.00
2022-12-16T02:09:21.947Z,0.00
2022-12-16T02:10:21.927Z,0.00
2022-12-16T02:11:21.910Z,0.00
2022-12-16T02:12:21.890Z,0.00
2022-12-16T02:13:21.877Z,0.00
2022-12-16T02:14:21.860Z,0.00
2022-12-16T02:15:21.835Z,0.00
2022-12-16T02:16:21.848Z,0.00
2022-12-16T02:17:21.810Z,0.00
2022-12-16T02:18:21.784Z,0.00
2022-12-16T02:19:21.773Z,0.00
2022-12-16T02:20:21.752Z,0.00
2022-12-16T02:21:21.741Z,0.00
2022-12-16T02:22:21.712Z,0.00
2022-12-16T02:23:21.708Z,0.00
2022-12-16T02:24:21.688Z,0.00
2022-12-16T02:25:21.667Z,0.00
2022-12-16T02:26:21.686Z,0.00
2022-12-16T02:27:21.634Z,0.00
2022-12-16T02:28:21.613Z,0.00
2022-12-16T02:29:21.594Z,0.00
2022-12-16T02:30:21.566Z,0.00
2022-12-16T02:31:21.612Z,0.00
2022-12-16T02:32:21.538Z,0.00
2022-12-16T02:33:21.529Z,0.00
2022-12-16T02:34:21.505Z,0.00
2022-12-16T02:35:21.493Z,0.00
2022-12-16T02:36:21.467Z,0.00
2022-12-16T02:37:21.455Z,0.00
2022-12-16T02:38:21.436Z,0.00
2022-12-16T02:39:21.430Z,0.00
2022-12-16T02:40:21.401Z,0.00
2022-12-16T02:41:21.375Z,0.00
2022-12-16T02:42:21.363Z,0.00
2022-12-16T02:43:21.348Z,0.00
2022-12-16T02:44:21.323Z,0.00
2022-12-16T02:45:21.313Z,0.00
2022-12-16T02:46:21.322Z,0.00
2022-12-16T02:47:21.273Z,0.00
2022-12-16T02:48:21.257Z,0.00
2022-12-16T02:49:21.236Z,0.00
2022-12-16T02:50:21.219Z,0.00
2022-12-16T02:51:21.203Z,0.00
2022-12-16T02:52:21.183Z,0.00
2022-12-16T02:53:21.167Z,0.00
2022-12-16T02:54:21.150Z,0.00
2022-12-16T02:55:21.132Z,0.00
2022-12-16T02:56:21.113Z,0.00
2022-12-16T02:57:21.094Z,0.00
2022-12-16T02:58:21.079Z,0.00
2022-12-16T02:59:21.062Z,0.00
2022-12-16T03:00:21.071Z,0.00
2022-12-16T03:01:21.122Z,0.00
2022-12-16T03:02:21.173Z,0.00
2022-12-16T03:03:21.082Z,0.00
2022-12-16T03:04:20.979Z,0.00
2022-12-16T03:05:20.964Z,0.00
2022-12-16T03:06:20.942Z,0.00
2022-12-16T03:07:20.923Z,0.00
2022-12-16T03:08:20.901Z,0.00
2022-12-16T03:09:20.888Z,0.00
2022-12-16T03:10:20.872Z,0.00
2022-12-16T03:11:20.852Z,0.00
2022-12-16T03:12:20.832Z,0.00
2022-12-16T03:13:20.820Z,0.00
2022-12-16T03:14:20.798Z,0.00
2022-12-16T03:15:20.777Z,0.00
2022-12-16T03:16:20.843Z,0.00
2022-12-16T03:17:20.737Z,0.00
2022-12-16T03:18:20.723Z,0.00
2022-12-16T03:19:20.705Z,0.00
2022-12-16T03:20:20.682Z,0.00
2022-12-16T03:21:20.668Z,0.00
2022-12-16T03:22:20.650Z,0.00
2022-12-16T03:23:20.631Z,0.00
2022-12-16T03:24:20.619Z,0.00
2022-12-16T03:25:20.598Z,0.00
2022-12-16T03:26:20.579Z,0.00
2022-12-16T03:27:20.574Z,0.00
2022-12-16T03:28:20.545Z,0.00
2022-12-16T03:29:20.526Z,0.00
2022-12-16T03:30:20.509Z,0.00
2022-12-16T03:31:20.569Z,0.00
2022-12-16T03:32:20.475Z,0.00
2022-12-16T03:33:20.452Z,0.00
2022-12-16T03:34:20.437Z,0.00
2022-12-16T03:35:20.418Z,0.00
2022-12-16T03:36:20.403Z,0.00
2022-12-16T03:37:20.383Z,0.00
2022-12-16T03:38:20.370Z,0.00
2022-12-16T03:39:20.351Z,0.00
2022-12-16T03:40:20.340Z,0.00
2022-12-16T03:41:20.315Z,0.00
2022-12-16T03:42:20.297Z,0.00
2022-12-16T03:43:20.283Z,0.00
2022-12-16T03:44:20.260Z,0.00
2022-12-16T03:45:20.252Z,0.00
2022-12-16T03:46:20.285Z,0.00
2022-12-16T03:47:23.885Z,0.00
2022-12-16T03:48:20.197Z,0.00
2022-12-16T03:49:20.171Z,0.00
2022-12-16T03:50:20.157Z,0.00
2022-12-16T03:51:20.144Z,0.00
2022-12-16T03:52:20.120Z,0.00
2022-12-16T03:53:20.108Z,0.00
2022-12-16T03:54:20.089Z,0.00
2022-12-16T03:55:20.062Z,0.00
2022-12-16T03:56:20.051Z,0.00
2022-12-16T03:57:20.037Z,0.00
2022-12-16T03:58:20.020Z,0.00
2022-12-16T03:59:19.993Z,0.00
2022-12-16T04:00:19.983Z,0.00
2022-12-16T04:01:20.007Z,0.00
2022-12-16T04:02:20.082Z,0.00
2022-12-16T04:03:19.959Z,0.00
2022-12-16T04:04:19.923Z,0.00
2022-12-16T04:05:19.891Z,0.00
2022-12-16T04:06:19.876Z,0.00
2022-12-16T04:07:19.864Z,0.00
2022-12-16T04:08:19.843Z,0.00
2022-12-16T04:09:19.828Z,0.00
2022-12-16T04:10:19.804Z,0.00
2022-12-16T04:11:19.783Z,0.00
2022-12-16T04:12:19.767Z,0.00
2022-12-16T04:13:19.755Z,0.00
2022-12-16T04:14:19.732Z,0.00
2022-12-16T04:15:19.714Z,0.00
2022-12-16T04:16:19.769Z,0.00
2022-12-16T04:17:19.677Z,0.00
2022-12-16T04:18:19.666Z,0.00
2022-12-16T04:19:19.643Z,0.00
2022-12-16T04:20:19.628Z,0.00
2022-12-16T04:21:19.608Z,0.00
2022-12-16T04:22:19.591Z,0.00
2022-12-16T04:23:19.570Z,0.00
2022-12-16T04:24:19.549Z,0.00
2022-12-16T04:25:19.541Z,0.00
2022-12-16T04:26:19.517Z,0.00
2022-12-16T04:27:19.500Z,0.00
2022-12-16T04:28:19.482Z,0.00
2022-12-16T04:29:19.466Z,0.00
2022-12-16T04:30:19.449Z,0.00
2022-12-16T04:31:19.443Z,0.00
2022-12-16T04:32:19.421Z,0.00
2022-12-16T04:33:19.396Z,0.00
2022-12-16T04:34:19.380Z,0.00
2022-12-16T04:35:19.365Z,0.00
2022-12-16T04:36:19.344Z,0.00
2022-12-16T04:37:19.324Z,0.00
2022-12-16T04:38:19.307Z,0.00
2022-12-16T04:39:19.293Z,0.00
2022-12-16T04:40:19.274Z,0.00
2022-12-16T04:41:19.252Z,0.00
2022-12-16T04:42:19.236Z,0.00
2022-12-16T04:43:19.222Z,0.00
2022-12-16T04:44:19.206Z,0.00
2022-12-16T04:45:19.189Z,0.00
2022-12-16T04:46:19.230Z,0.00
2022-12-16T04:47:19.151Z,0.00
2022-12-16T04:48:19.137Z,0.00
2022-12-16T04:49:19.119Z,0.00
2022-12-16T04:50:19.099Z,0.00
2022-12-16T04:51:19.077Z,0.00
2022-12-16T04:52:19.069Z,0.00
2022-12-16T04:53:19.045Z,0.00
2022-12-16T04:54:19.027Z,0.00
2022-12-16T04:55:19.009Z,0.00
2022-12-16T04:56:18.993Z,0.00
2022-12-16T04:57:18.975Z,0.00
2022-12-16T04:58:18.973Z,0.00
2022-12-16T04:59:18.942Z,0.00
2022-12-16T05:00:18.930Z,0.00
2022-12-16T05:01:19.120Z,0.00
2022-12-16T05:02:19.013Z,0.00
2022-12-16T05:03:18.898Z,0.00
2022-12-16T05:04:18.853Z,0.00
2022-12-16T05:05:18.832Z,0.00
2022-12-16T05:06:18.818Z,0.00
2022-12-16T05:07:18.800Z,0.00
2022-12-16T05:08:18.816Z,0.00
2022-12-16T05:09:18.766Z,0.00
2022-12-16T05:10:18.750Z,0.00
2022-12-16T05:11:18.730Z,0.00
2022-12-16T05:12:18.714Z,0.00
2022-12-16T05:13:18.693Z,0.00
2022-12-16T05:14:18.680Z,0.00
2022-12-16T05:15:18.660Z,0.00
2022-12-16T05:16:18.719Z,0.00
2022-12-16T05:17:18.626Z,0.00
2022-12-16T05:18:18.608Z,0.00
2022-12-16T05:19:18.592Z,0.00
2022-12-16T05:20:18.570Z,0.00
2022-12-16T05:21:18.606Z,0.00
2022-12-16T05:22:18.538Z,0.00
2022-12-16T05:23:18.519Z,0.00
2022-12-16T05:24:18.499Z,0.00
2022-12-16T05:25:18.485Z,0.00
2022-12-16T05:26:18.464Z,0.00
2022-12-16T05:27:18.451Z,0.00
2022-12-16T05:28:18.438Z,0.00
2022-12-16T05:29:18.411Z,0.00
2022-12-16T05:30:18.404Z,0.00
2022-12-16T05:31:18.446Z,0.00
2022-12-16T05:32:18.368Z,0.00
2022-12-16T05:33:18.350Z,0.00
2022-12-16T05:34:18.329Z,0.00
2022-12-16T05:35:18.320Z,0.00
2022-12-16T05:36:18.290Z,0.00
2022-12-16T05:37:18.278Z,0.00
2022-12-16T05:38:18.260Z,0.00
2022-12-16T05:39:18.246Z,0.00
2022-12-16T05:40:18.223Z,0.00
2022-12-16T05:41:18.209Z,0.00
2022-12-16T05:42:18.193Z,0.00
2022-12-16T05:43:18.168Z,0.00
2022-12-16T05:44:18.152Z,0.00
2022-12-16T05:45:18.139Z,0.00
2022-12-16T05:46:18.228Z,0.00
2022-12-16T05:47:18.173Z,0.00
2022-12-16T05:48:18.086Z,0.00
2022-12-16T05:49:18.069Z,0.00
2022-12-16T05:50:18.052Z,0.00
2022-12-16T05:51:18.032Z,0.00
2022-12-16T05:52:18.031Z,0.00
2022-12-16T05:53:18.000Z,0.00
2022-12-16T05:54:17.981Z,0.00
2022-12-16T05:55:17.966Z,0.00
2022-12-16T05:56:17.947Z,0.00
2022-12-16T05:57:18.075Z,0.00
2022-12-16T05:58:17.909Z,0.00
2022-12-16T05:59:17.894Z,0.00
2022-12-16T06:00:17.870Z,0.00
2022-12-16T06:01:17.879Z,0.00
2022-12-16T06:02:18.155Z,0.00
2022-12-16T06:03:17.909Z,0.00
2022-12-16T06:04:18.174Z,0.00
2022-12-16T06:05:17.785Z,0.00
2022-12-16T06:06:17.764Z,0.00
2022-12-16T06:07:17.813Z,0.00
2022-12-16T06:08:17.733Z,0.00
2022-12-16T06:09:17.712Z,0.00
2022-12-16T06:10:17.752Z,0.00
2022-12-16T06:11:17.685Z,0.00
2022-12-16T06:12:17.759Z,0.00
2022-12-16T06:13:17.641Z,0.00
2022-12-16T06:14:17.626Z,0.00
2022-12-16T06:15:17.828Z,0.00
2022-12-16T06:16:17.604Z,0.00
2022-12-16T06:17:17.662Z,0.00
2022-12-16T06:18:17.559Z,0.00
2022-12-16T06:19:17.550Z,0.00
2022-12-16T06:20:17.521Z,0.00
2022-12-16T06:21:17.503Z,0.00
2022-12-16T06:22:17.484Z,0.00
2022-12-16T06:23:22.473Z,0.00
2022-12-16T06:24:17.447Z,0.00
2022-12-16T06:25:17.432Z,0.00
2022-12-16T06:26:17.413Z,0.00
2022-12-16T06:27:17.396Z,0.00
2022-12-16T06:28:17.383Z,0.00
2022-12-16T06:29:17.369Z,0.00
2022-12-16T06:30:17.345Z,0.00
2022-12-16T06:31:17.364Z,0.00
2022-12-16T06:32:17.309Z,0.00
2022-12-16T06:33:17.293Z,0.00
2022-12-16T06:34:17.277Z,0.00
2022-12-16T06:35:17.261Z,0.00
2022-12-16T06:36:17.234Z,0.00
2022-12-16T06:37:17.222Z,0.00
2022-12-16T06:38:17.196Z,0.00
2022-12-16T06:39:17.188Z,0.00
2022-12-16T06:40:17.165Z,0.00
2022-12-16T06:41:17.270Z,0.00
2022-12-16T06:42:17.129Z,0.00
2022-12-16T06:43:17.113Z,0.00
2022-12-16T06:44:17.100Z,0.00
2022-12-16T06:45:17.075Z,0.00
2022-12-16T06:46:17.126Z,0.00
2022-12-16T06:47:17.039Z,0.00
2022-12-16T06:48:17.016Z,0.00
2022-12-16T06:49:17.001Z,0.00
2022-12-16T06:50:16.984Z,0.00
2022-12-16T06:51:16.973Z,0.00
2022-12-16T06:52:16.950Z,0.00
2022-12-16T06:53:16.938Z,0.00
2022-12-16T06:54:16.913Z,0.00
2022-12-16T06:55:16.901Z,0.00
2022-12-16T06:56:16.869Z,0.00
2022-12-16T06:57:16.944Z,0.00
2022-12-16T06:58:16.844Z,4.00
2022-12-16T06:59:16.823Z,4.00
2022-12-16T07:00:16.804Z,0.00
2022-12-16T07:01:16.874Z,4.00
2022-12-16T07:02:16.871Z,4.00
2022-12-16T07:03:16.795Z,4.00
2022-12-16T07:04:16.735Z,4.00
2022-12-16T07:05:16.721Z,8.00
2022-12-16T07:06:16.698Z,8.00
2022-12-16T07:07:16.681Z,8.00
2022-12-16T07:08:16.661Z,12.00
2022-12-16T07:09:16.648Z,12.00
2022-12-16T07:10:16.628Z,12.00
2022-12-16T07:11:17.504Z,12.00
2022-12-16T07:12:16.583Z,12.00
2022-12-16T07:13:16.575Z,16.00
2022-12-16T07:14:16.557Z,16.00
2022-12-16T07:15:16.537Z,20.00
2022-12-16T07:16:16.540Z,24.00
2022-12-16T07:17:17.421Z,24.00
2022-12-16T07:18:16.499Z,28.00
2022-12-16T07:19:16.464Z,32.00
2022-12-16T07:20:16.461Z,36.00
2022-12-16T07:21:16.419Z,36.00
2022-12-16T07:22:16.423Z,44.00
2022-12-16T07:23:19.790Z,44.00
2022-12-16T07:24:16.382Z,52.00
2022-12-16T07:25:16.361Z,56.00
2022-12-16T07:26:16.334Z,60.00
2022-12-16T07:27:16.335Z,64.00
2022-12-16T07:28:16.302Z,72.00
2022-12-16T07:29:16.285Z,72.00
2022-12-16T07:30:16.277Z,80.00
2022-12-16T07:31:16.265Z,88.00
2022-12-16T07:32:16.225Z,92.00
2022-12-16T07:33:16.216Z,100.00
2022-12-16T07:34:16.208Z,104.00
2022-12-16T07:35:16.181Z,112.00
2022-12-16T07:36:16.169Z,120.00
2022-12-16T07:37:16.145Z,124.00
2022-12-16T07:38:16.122Z,136.00
2022-12-16T07:39:16.102Z,140.00
2022-12-16T07:40:16.087Z,148.00
2022-12-16T07:41:16.067Z,156.00
2022-12-16T07:42:16.065Z,168.00
2022-12-16T07:43:16.033Z,176.00
2022-12-16T07:44:16.015Z,188.00
2022-12-16T07:45:16.050Z,192.00
2022-12-16T07:46:16.068Z,204.00
2022-12-16T07:47:15.959Z,216.00
2022-12-16T07:48:15.950Z,224.00
2022-12-16T07:49:15.929Z,236.00
2022-12-16T07:50:15.914Z,244.00
2022-12-16T07:51:15.895Z,256.00
2022-12-16T07:52:15.883Z,264.00
2022-12-16T07:53:15.863Z,276.00
2022-12-16T07:54:15.837Z,284.00
2022-12-16T07:55:15.821Z,292.00
2022-12-16T07:56:15.805Z,300.00
2022-12-16T07:57:15.794Z,312.00
2022-12-16T07:58:15.769Z,320.00
2022-12-16T07:59:15.758Z,336.00
2022-12-16T08:00:15.732Z,344.00
2022-12-16T08:01:15.793Z,356.00
2022-12-16T08:02:15.780Z,368.00
2022-12-16T08:03:15.741Z,372.00
2022-12-16T08:04:15.664Z,388.00
2022-12-16T08:05:15.651Z,400.00
2022-12-16T08:06:15.626Z,412.00
2022-12-16T08:07:15.609Z,428.00
2022-12-16T08:08:15.594Z,440.00
2022-12-16T08:09:15.578Z,464.00
2022-12-16T08:10:15.558Z,476.00
2022-12-16T08:11:15.539Z,488.00
2022-12-16T08:12:15.531Z,504.00
2022-12-16T08:13:18.450Z,520.00
2022-12-16T08:14:15.485Z,536.00
2022-12-16T08:15:15.470Z,548.00
2022-12-16T08:16:15.521Z,564.00
2022-12-16T08:17:15.550Z,584.00
2022-12-16T08:18:15.416Z,604.00
2022-12-16T08:19:15.398Z,624.00
2022-12-16T08:20:15.378Z,624.00
2022-12-16T08:21:15.362Z,648.00
2022-12-16T08:22:15.337Z,664.00
2022-12-16T08:23:15.328Z,664.00
2022-12-16T08:24:15.310Z,672.00
2022-12-16T08:25:15.292Z,692.00
2022-12-16T08:26:15.272Z,744.00
2022-12-16T08:27:15.257Z,760.00
2022-12-16T08:28:15.240Z,768.00
2022-12-16T08:29:42.541Z,780.00
2022-12-16T08:30:15.211Z,844.00
2022-12-16T08:31:15.219Z,868.00
2022-12-16T08:32:15.168Z,892.00
2022-12-16T08:33:19.200Z,876.00
2022-12-16T08:34:15.134Z,876.00
2022-12-16T08:35:15.115Z,856.00
2022-12-16T08:36:15.096Z,860.00
2022-12-16T08:37:15.086Z,896.00
2022-12-16T08:38:15.100Z,920.00
2022-12-16T08:39:15.075Z,896.00
2022-12-16T08:40:34.832Z,988.00
2022-12-16T08:41:15.011Z,1004.00
2022-12-16T08:42:14.992Z,1032.00
2022-12-16T08:43:14.984Z,1068.00
2022-12-16T08:44:14.958Z,1092.00
2022-12-16T08:45:14.966Z,1140.00
2022-12-16T08:46:14.983Z,1180.00
2022-12-16T08:47:14.907Z,1228.00
2022-12-16T08:48:14.883Z,1244.00
2022-12-16T08:50:14.862Z,1224.00
2022-12-16T08:51:14.837Z,1200.00
2022-12-16T08:52:14.819Z,1208.00
2022-12-16T08:53:14.810Z,1220.00
2022-12-16T08:54:14.785Z,1212.00
2022-12-16T08:55:14.773Z,1208.00
2022-12-16T08:56:14.751Z,1204.00
2022-12-16T08:57:14.736Z,1300.00
2022-12-16T08:58:14.808Z,1516.00
2022-12-16T08:59:14.707Z,1700.00
2022-12-16T09:00:14.686Z,1508.00
2022-12-16T09:01:14.739Z,1280.00
2022-12-16T09:02:14.838Z,1252.00
2022-12-16T09:03:14.914Z,1264.00
2022-12-16T09:04:14.645Z,1260.00
2022-12-16T09:05:14.595Z,1264.00
2022-12-16T09:06:14.581Z,1284.00
2022-12-16T09:07:14.568Z,1364.00
2022-12-16T09:08:14.546Z,1440.00
2022-12-16T09:09:14.525Z,1420.00
2022-12-16T09:10:14.508Z,1388.00
2022-12-16T09:11:14.490Z,1376.00
2022-12-16T09:12:14.473Z,1380.00
2022-12-16T09:13:14.461Z,1376.00
2022-12-16T09:14:14.441Z,1368.00
2022-12-16T09:15:14.421Z,1428.00
2022-12-16T09:16:17.728Z,1444.00
2022-12-16T09:17:14.398Z,1456.00
2022-12-16T09:18:14.380Z,1468.00
2022-12-16T09:19:14.354Z,1524.00
2022-12-16T09:20:14.343Z,1584.00
2022-12-16T09:21:14.319Z,1756.00
2022-12-16T09:22:14.302Z,1708.00
2022-12-16T09:23:14.291Z,1616.00
2022-12-16T09:24:14.272Z,1592.00
2022-12-16T09:25:14.253Z,1660.00
2022-12-16T09:26:14.311Z,1656.00
2022-12-16T09:27:14.223Z,1704.00
2022-12-16T09:28:14.202Z,1676.00
2022-12-16T09:29:14.194Z,1704.00
2022-12-16T09:30:14.170Z,1816.00
2022-12-16T09:31:14.180Z,1912.00
2022-12-16T09:32:14.151Z,1844.00
2022-12-16T09:33:14.129Z,1932.00
2022-12-16T09:34:14.117Z,1788.00
2022-12-16T09:35:14.090Z,1688.00
2022-12-16T09:36:14.072Z,1632.00
2022-12-16T09:37:14.054Z,1596.00
2022-12-16T09:38:14.045Z,1604.00
2022-12-16T09:39:14.035Z,1652.00
2022-12-16T09:40:14.009Z,1712.00
2022-12-16T09:41:13.991Z,2144.00
2022-12-16T09:42:13.973Z,3056.00
2022-12-16T09:43:13.962Z,3432.00
2022-12-16T09:44:13.939Z,3320.00
2022-12-16T09:45:13.919Z,2816.00
2022-12-16T09:46:13.961Z,2144.00
2022-12-16T09:47:13.890Z,2648.00
2022-12-16T09:48:13.876Z,3488.00
2022-12-16T09:49:13.858Z,3096.00
2022-12-16T09:50:13.833Z,2360.00
2022-12-16T09:51:13.823Z,2220.00
2022-12-16T09:52:18.330Z,2052.00
2022-12-16T09:53:13.797Z,1928.00
2022-12-16T09:54:13.775Z,1884.00
2022-12-16T09:55:13.759Z,1908.00
2022-12-16T09:56:13.747Z,1980.00
2022-12-16T09:57:13.730Z,2020.00
2022-12-16T09:58:13.714Z,2084.00
2022-12-16T09:59:13.702Z,2212.00
2022-12-16T10:00:13.688Z,2364.00
2022-12-16T10:01:13.683Z,2784.00
2022-12-16T10:02:13.812Z,3784.00
2022-12-16T10:03:13.858Z,4712.00
2022-12-16T10:04:13.657Z,5224.00
2022-12-16T10:05:13.611Z,5064.00
2022-12-16T10:06:13.590Z,5260.00
2022-12-16T10:07:13.579Z,5540.00
2022-12-16T10:08:18.838Z,5492.00
2022-12-16T10:09:13.547Z,5256.00
2022-12-16T10:10:13.531Z,5536.00
2022-12-16T10:11:13.519Z,5296.00
2022-12-16T10:12:13.505Z,5408.00
2022-12-16T10:13:13.492Z,5432.00
2022-12-16T10:14:17.812Z,5516.00
2022-12-16T10:15:13.465Z,5236.00
2022-12-16T10:16:13.510Z,5616.00
2022-12-16T10:17:13.439Z,5740.00
2022-12-16T10:18:13.456Z,5688.00
2022-12-16T10:19:13.421Z,5452.00
2022-12-16T10:20:13.401Z,5540.00
2022-12-16T10:21:13.386Z,5672.00
2022-12-16T10:22:13.375Z,5392.00
2022-12-16T10:23:13.367Z,5416.00
2022-12-16T10:24:13.349Z,5604.00
2022-12-16T10:25:13.343Z,5564.00
2022-12-16T10:26:13.332Z,5412.00
2022-12-16T10:27:13.322Z,5464.00
2022-12-16T10:28:13.309Z,5168.00
2022-12-16T10:29:13.301Z,5520.00
2022-12-16T10:30:13.299Z,5576.00
2022-12-16T10:31:13.290Z,5560.00
2022-12-16T10:32:13.263Z,5096.00
2022-12-16T10:33:13.252Z,5248.00
2022-12-16T10:34:13.246Z,5308.00
2022-12-16T10:35:13.230Z,5052.00
2022-12-16T10:36:13.223Z,5496.00
2022-12-16T10:37:17.619Z,5396.00
2022-12-16T10:38:13.202Z,5344.00
2022-12-16T10:39:13.191Z,5336.00
2022-12-16T10:40:13.180Z,4648.00
2022-12-16T10:41:13.286Z,5252.00
2022-12-16T10:42:13.161Z,5136.00
2022-12-16T10:43:13.153Z,5124.00
2022-12-16T10:44:13.142Z,5176.00
2022-12-16T10:45:13.139Z,5088.00
2022-12-16T10:46:13.144Z,4448.00
2022-12-16T10:47:13.118Z,5124.00
2022-12-16T10:48:13.108Z,4692.00
2022-12-16T10:49:13.162Z,4984.00
2022-12-16T10:50:13.209Z,4840.00
2022-12-16T10:51:13.078Z,5236.00
2022-12-16T10:52:13.069Z,5096.00
2022-12-16T10:53:13.058Z,4992.00
2022-12-16T10:54:13.051Z,5172.00
2022-12-16T10:55:13.041Z,5232.00
2022-12-16T10:56:13.033Z,5196.00
2022-12-16T10:57:13.023Z,5260.00
2022-12-16T10:58:13.011Z,5328.00
2022-12-16T10:59:13.005Z,5292.00
2022-12-16T11:00:12.994Z,5220.00
2022-12-16T11:01:13.052Z,5252.00
2022-12-16T11:02:13.060Z,5132.00
2022-12-16T11:03:13.238Z,5180.00
2022-12-16T11:04:13.001Z,5196.00
2022-12-16T11:05:12.952Z,5096.00
2022-12-16T11:06:12.943Z,5104.00
2022-12-16T11:07:12.940Z,5196.00
2022-12-16T11:08:12.931Z,5144.00
2022-12-16T11:09:12.921Z,5324.00
2022-12-16T11:10:12.915Z,5236.00
2022-12-16T11:11:12.906Z,5232.00
2022-12-16T11:12:12.915Z,5204.00
2022-12-16T11:13:12.891Z,5260.00
2022-12-16T11:14:12.883Z,5168.00
2022-12-16T11:15:28.798Z,5208.00
2022-12-16T11:16:12.907Z,5160.00
2022-12-16T11:17:12.867Z,5140.00
2022-12-16T11:18:12.850Z,5084.00
2022-12-16T11:19:12.841Z,5100.00
2022-12-16T11:20:12.833Z,5148.00
2022-12-16T11:21:15.796Z,5044.00
2022-12-16T11:22:12.822Z,5116.00
2022-12-16T11:23:12.819Z,5088.00
2022-12-16T11:24:12.797Z,5088.00
2022-12-16T11:25:12.800Z,5052.00
2022-12-16T11:26:12.794Z,5040.00
2022-12-16T11:27:12.782Z,5004.00
2022-12-16T11:28:12.775Z,4984.00
2022-12-16T11:29:12.774Z,4964.00
2022-12-16T11:30:12.768Z,4916.00
2022-12-16T11:31:12.822Z,4920.00
2022-12-16T11:32:12.751Z,4900.00
2022-12-16T11:33:12.756Z,4848.00
2022-12-16T11:34:12.737Z,4880.00
2022-12-16T11:35:12.731Z,4852.00
2022-12-16T11:36:12.719Z,4812.00
2022-12-16T11:37:15.577Z,4760.00
2022-12-16T11:38:12.709Z,4720.00
2022-12-16T11:39:12.698Z,4668.00
2022-12-16T11:40:12.693Z,4664.00
2022-12-16T11:41:12.690Z,4632.00
2022-12-16T11:42:12.679Z,4612.00
2022-12-16T11:43:17.010Z,4548.00
2022-12-16T11:44:12.667Z,4508.00
2022-12-16T11:45:12.660Z,4412.00
2022-12-16T11:46:12.682Z,4432.00
2022-12-16T11:47:12.644Z,4408.00
2022-12-16T11:48:12.641Z,4380.00
2022-12-16T11:49:12.633Z,4372.00
2022-12-16T11:50:12.627Z,4344.00
2022-12-16T11:51:12.618Z,4376.00
2022-12-16T11:52:35.272Z,4356.00
2022-12-16T11:53:12.605Z,4344.00
2022-12-16T11:54:12.594Z,4332.00
2022-12-16T11:55:12.628Z,4260.00
2022-12-16T11:56:15.941Z,4228.00
2022-12-16T11:57:12.571Z,4196.00
2022-12-16T11:58:12.567Z,4148.00
2022-12-16T11:59:12.568Z,4156.00
2022-12-16T12:00:12.557Z,4156.00
2022-12-16T12:01:12.549Z,4124.00
2022-12-16T12:02:12.621Z,4116.00
2022-12-16T12:03:12.710Z,4100.00
2022-12-16T12:04:12.600Z,4052.00
2022-12-16T12:05:12.532Z,4044.00
2022-12-16T12:06:12.515Z,4036.00
2022-12-16T12:07:12.509Z,3936.00
2022-12-16T12:08:12.502Z,3924.00
2022-12-16T12:09:12.498Z,3956.00
2022-12-16T12:10:12.493Z,3948.00
2022-12-16T12:11:12.482Z,3948.00
2022-12-16T12:12:12.478Z,3916.00
2022-12-16T12:13:12.465Z,3884.00
2022-12-16T12:14:12.464Z,3852.00
2022-12-16T12:15:12.454Z,3836.00
2022-12-16T12:16:12.495Z,3832.00
2022-12-16T12:17:12.438Z,3832.00
2022-12-16T12:18:12.429Z,3804.00
2022-12-16T12:19:12.419Z,3800.00
2022-12-16T12:20:12.422Z,3780.00
2022-12-16T12:21:12.412Z,3732.00
2022-12-16T12:22:12.410Z,3680.00
2022-12-16T12:23:12.394Z,3680.00
2022-12-16T12:24:12.387Z,3684.00
2022-12-16T12:25:12.386Z,3624.00
2022-12-16T12:26:12.380Z,3612.00
2022-12-16T12:27:12.360Z,3580.00
2022-12-16T12:28:12.357Z,3560.00
2022-12-16T12:29:12.355Z,3568.00
2022-12-16T12:30:16.358Z,3488.00
2022-12-16T12:31:12.404Z,3472.00
2022-12-16T12:32:12.334Z,3400.00
2022-12-16T12:33:12.379Z,3360.00
2022-12-16T12:34:12.314Z,3292.00
2022-12-16T12:35:12.307Z,3256.00
2022-12-16T12:36:12.301Z,3192.00
2022-12-16T12:37:12.295Z,3024.00
2022-12-16T12:38:12.287Z,2496.00
2022-12-16T12:39:12.279Z,1840.00
2022-12-16T12:40:12.277Z,1488.00
2022-12-16T12:41:12.263Z,1304.00
2022-12-16T12:42:12.261Z,1216.00
2022-12-16T12:43:12.255Z,1360.00
2022-12-16T12:44:12.247Z,1456.00
2022-12-16T12:45:12.240Z,1280.00
2022-12-16T12:46:12.298Z,1164.00
2022-12-16T12:47:12.309Z,1120.00
2022-12-16T12:48:12.215Z,1088.00
2022-12-16T12:49:12.207Z,1072.00